createdAt,value
2018-12-30T00:00:06.601Z,4.83
2018-12-30T00:02:36.052Z,4.20
2018-12-30T00:05:05.772Z,3.90
2018-12-30T00:07:35.713Z,4.07
2018-12-30T00:10:05.639Z,3.50
2018-12-30T00:12:35.089Z,4.40
2018-12-30T00:15:04.624Z,4.33
2018-12-30T00:17:34.055Z,4.23
2018-12-30T00:20:03.911Z,3.97
2018-12-30T00:22:33.365Z,4.37
2018-12-30T00:25:02.777Z,4.50
2018-12-30T00:27:32.182Z,4.23
2018-12-30T00:30:01.644Z,3.97
2018-12-30T00:32:31.075Z,4.10
2018-12-30T00:35:00.574Z,4.83
2018-12-30T00:37:30.002Z,5.83
2018-12-30T00:39:59.433Z,4.53
2018-12-30T00:42:28.835Z,5.47
2018-12-30T00:44:58.504Z,4.63
2018-12-30T00:47:27.920Z,3.87
2018-12-30T00:49:57.325Z,4.70
2018-12-30T00:52:26.704Z,3.93
2018-12-30T00:54:56.139Z,4.83
2018-12-30T00:57:25.850Z,5.07
2018-12-30T00:59:55.363Z,4.90
2018-12-30T01:02:24.765Z,4.90
2018-12-30T01:04:54.236Z,6.17
2018-12-30T01:07:23.643Z,5.03
2018-12-30T01:09:53.039Z,4.73
2018-12-30T01:12:22.402Z,5.97
2018-12-30T01:14:51.765Z,5.33
2018-12-30T01:17:21.206Z,4.10
2018-12-30T01:19:50.642Z,5.00
2018-12-30T01:22:20.115Z,4.37
2018-12-30T01:24:49.539Z,3.90
2018-12-30T01:27:18.931Z,4.73
2018-12-30T01:29:48.265Z,4.10
2018-12-30T01:32:17.757Z,4.03
2018-12-30T01:34:47.091Z,5.13
2018-12-30T01:37:16.840Z,5.00
2018-12-30T01:39:46.245Z,4.33
2018-12-30T01:42:15.698Z,4.70
2018-12-30T01:44:45.102Z,4.13
2018-12-30T01:47:14.544Z,5.20
2018-12-30T01:49:44.230Z,4.90
2018-12-30T01:52:13.604Z,4.17
2018-12-30T01:54:43.005Z,5.07
2018-12-30T01:57:12.383Z,4.67
2018-12-30T01:59:41.728Z,4.43
2018-12-30T02:02:11.327Z,4.07
2018-12-30T02:04:40.730Z,4.40
2018-12-30T02:07:10.204Z,4.70
2018-12-30T02:09:39.511Z,4.47
2018-12-30T02:12:08.965Z,4.63
2018-12-30T02:14:38.575Z,6.37
2018-12-30T02:17:07.916Z,4.17
2018-12-30T02:19:37.244Z,4.43
2018-12-30T02:22:06.628Z,4.07
2018-12-30T02:24:36.025Z,5.03
2018-12-30T02:27:05.629Z,5.13
2018-12-30T02:29:35.046Z,5.13
2018-12-30T02:32:04.418Z,4.10
2018-12-30T02:34:33.840Z,4.77
2018-12-30T02:37:03.275Z,4.60
2018-12-30T02:39:32.729Z,4.90
2018-12-30T02:42:02.047Z,5.03
2018-12-30T02:44:31.395Z,4.17
2018-12-30T02:47:00.770Z,4.50
2018-12-30T02:49:30.130Z,4.70
2018-12-30T02:51:59.510Z,4.97
2018-12-30T02:54:28.952Z,3.70
2018-12-30T02:56:58.285Z,5.07
2018-12-30T02:59:27.851Z,5.00
2018-12-30T03:01:57.580Z,4.40
2018-12-30T03:04:26.916Z,4.53
2018-12-30T03:06:56.333Z,4.33
2018-12-30T03:09:25.735Z,4.47
2018-12-30T03:11:55.164Z,4.20
2018-12-30T03:14:24.520Z,5.07
2018-12-30T03:16:53.961Z,4.23
2018-12-30T03:19:23.327Z,3.97
2018-12-30T03:21:59.163Z,4.40
2018-12-30T03:24:23.835Z,4.00
2018-12-30T03:26:53.195Z,4.27
2018-12-30T03:29:22.676Z,4.87
2018-12-30T03:31:52.085Z,4.67
2018-12-30T03:34:21.431Z,3.77
2018-12-30T03:36:50.847Z,4.13
2018-12-30T03:39:20.184Z,4.37
2018-12-30T03:41:49.535Z,4.47
2018-12-30T03:44:18.849Z,4.00
2018-12-30T03:46:48.184Z,4.90
2018-12-30T03:49:17.486Z,5.30
2018-12-30T03:51:46.838Z,4.70
2018-12-30T03:54:16.163Z,5.67
2018-12-30T03:56:45.516Z,6.23
2018-12-30T03:59:14.915Z,5.20
2018-12-30T04:01:44.257Z,5.50
2018-12-30T04:04:13.634Z,4.67
2018-12-30T04:06:43.047Z,5.50
2018-12-30T04:09:12.432Z,5.53
2018-12-30T04:11:41.743Z,5.40
2018-12-30T04:14:11.142Z,4.17
2018-12-30T04:16:40.499Z,4.30
2018-12-30T04:19:09.841Z,4.20
2018-12-30T04:21:39.136Z,3.93
2018-12-30T04:24:08.489Z,4.63
2018-12-30T04:26:37.838Z,4.50
2018-12-30T04:29:07.155Z,4.60
2018-12-30T04:31:36.535Z,4.10
2018-12-30T04:34:05.919Z,4.30
2018-12-30T04:36:35.330Z,3.43
2018-12-30T04:39:06.332Z,4.03
2018-12-30T04:41:35.838Z,5.00
2018-12-30T04:44:05.187Z,4.10
2018-12-30T04:46:34.543Z,4.53
2018-12-30T04:49:03.913Z,3.97
2018-12-30T04:51:33.323Z,3.90
2018-12-30T04:54:02.694Z,4.20
2018-12-30T04:56:32.045Z,3.77
2018-12-30T04:59:01.383Z,4.60
2018-12-30T05:01:30.784Z,5.33
2018-12-30T05:04:00.132Z,4.80
2018-12-30T05:06:29.523Z,4.73
2018-12-30T05:08:58.844Z,4.17
2018-12-30T05:11:28.247Z,3.70
2018-12-30T05:13:57.547Z,5.63
2018-12-30T05:19:02.389Z,4.90
2018-12-30T05:21:31.718Z,4.27
2018-12-30T05:24:01.037Z,4.70
2018-12-30T05:26:30.362Z,4.23
2018-12-30T05:28:59.756Z,4.87
2018-12-30T05:31:29.074Z,4.80
2018-12-30T05:33:58.405Z,5.00
2018-12-30T05:36:27.703Z,5.10
2018-12-30T05:38:57.044Z,4.73
2018-12-30T05:41:26.420Z,4.30
2018-12-30T05:43:55.738Z,5.77
2018-12-30T05:46:25.019Z,4.50
2018-12-30T05:48:54.340Z,4.33
2018-12-30T05:51:23.632Z,4.40
2018-12-30T05:53:53.083Z,3.83
2018-12-30T05:56:22.354Z,4.40
2018-12-30T05:58:51.671Z,4.10
2018-12-30T06:01:20.964Z,3.50
2018-12-30T06:03:50.280Z,3.80
2018-12-30T06:06:19.598Z,4.60
2018-12-30T06:08:48.953Z,4.30
2018-12-30T06:11:18.254Z,4.57
2018-12-30T06:13:47.543Z,4.67
2018-12-30T06:16:16.870Z,5.13
2018-12-30T06:18:46.208Z,4.33
2018-12-30T06:21:15.582Z,3.97
2018-12-30T06:23:44.911Z,4.13
2018-12-30T06:26:14.252Z,5.23
2018-12-30T06:28:43.523Z,3.63
2018-12-30T06:31:12.896Z,4.70
2018-12-30T06:33:42.202Z,4.33
2018-12-30T06:36:11.569Z,4.80
2018-12-30T06:38:40.904Z,4.60
2018-12-30T06:41:10.325Z,4.27
2018-12-30T06:43:39.647Z,4.73
2018-12-30T06:46:08.993Z,4.97
2018-12-30T06:48:38.289Z,5.20
2018-12-30T06:51:07.645Z,4.33
2018-12-30T06:53:36.959Z,4.40
2018-12-30T06:56:06.316Z,4.13
2018-12-30T06:58:35.642Z,4.07
2018-12-30T07:01:04.971Z,5.17
2018-12-30T07:03:34.296Z,4.63
2018-12-30T07:06:03.753Z,4.17
2018-12-30T07:08:33.054Z,4.77
2018-12-30T07:11:02.581Z,5.23
2018-12-30T07:13:31.907Z,3.80
2018-12-30T07:16:01.244Z,3.93
2018-12-30T07:18:30.648Z,4.00
2018-12-30T07:20:59.952Z,4.20
2018-12-30T07:23:29.279Z,4.13
2018-12-30T07:25:58.596Z,3.73
2018-12-30T07:28:27.917Z,4.80
2018-12-30T07:30:57.251Z,4.30
2018-12-30T07:33:26.617Z,4.50
2018-12-30T07:35:56.011Z,4.27
2018-12-30T07:38:25.322Z,3.83
2018-12-30T07:40:54.603Z,3.80
2018-12-30T07:43:23.923Z,4.47
2018-12-30T07:45:53.197Z,3.60
2018-12-30T07:48:22.519Z,4.00
2018-12-30T07:50:51.851Z,3.47
2018-12-30T07:53:21.180Z,4.60
2018-12-30T07:55:50.553Z,3.70
2018-12-30T07:58:19.884Z,4.30
2018-12-30T08:00:49.219Z,4.00
2018-12-30T08:03:18.595Z,4.23
2018-12-30T08:05:47.947Z,3.90
2018-12-30T08:08:17.281Z,3.60
2018-12-30T08:10:46.849Z,4.40
2018-12-30T08:13:16.256Z,3.23
2018-12-30T08:15:45.596Z,4.87
2018-12-30T08:18:14.908Z,3.30
2018-12-30T08:20:44.243Z,3.77
2018-12-30T08:23:21.112Z,4.30
2018-12-30T08:25:44.581Z,3.93
2018-12-30T08:28:13.857Z,3.77
2018-12-30T08:30:43.259Z,4.33
2018-12-30T08:33:12.560Z,3.93
2018-12-30T08:35:41.887Z,3.30
2018-12-30T08:38:11.278Z,4.17
2018-12-30T08:40:40.645Z,3.57
2018-12-30T08:43:09.997Z,3.43
2018-12-30T08:45:39.325Z,4.00
2018-12-30T08:48:08.624Z,4.37
2018-12-30T08:50:37.946Z,3.60
2018-12-30T08:53:07.299Z,3.83
2018-12-30T08:55:36.633Z,4.00
2018-12-30T08:58:05.945Z,4.27
2018-12-30T09:00:35.209Z,4.57
2018-12-30T09:03:04.536Z,4.40
2018-12-30T09:05:33.829Z,3.77
2018-12-30T09:08:03.255Z,4.40
2018-12-30T09:10:32.571Z,3.40
2018-12-30T09:13:01.963Z,5.60
2018-12-30T09:15:31.292Z,3.60
2018-12-30T09:18:00.639Z,3.07
2018-12-30T09:20:29.955Z,4.30
2018-12-30T09:22:59.303Z,3.83
2018-12-30T09:25:29.542Z,3.30
2018-12-30T09:27:58.891Z,3.63
2018-12-30T09:30:28.187Z,3.37
2018-12-30T09:32:57.524Z,3.37
2018-12-30T09:35:26.841Z,3.63
2018-12-30T09:37:56.163Z,3.53
2018-12-30T09:40:25.525Z,4.17
2018-12-30T09:42:54.843Z,3.03
2018-12-30T09:45:24.201Z,3.33
2018-12-30T09:47:53.562Z,3.20
2018-12-30T09:50:23.284Z,3.17
2018-12-30T09:52:52.633Z,2.97
2018-12-30T09:55:21.987Z,3.73
2018-12-30T09:57:51.290Z,4.00
2018-12-30T10:00:20.650Z,3.20
2018-12-30T10:02:50.004Z,3.80
2018-12-30T10:05:19.326Z,5.17
2018-12-30T10:07:48.641Z,3.50
2018-12-30T10:10:17.992Z,6.50
2018-12-30T10:12:47.293Z,3.60
2018-12-30T10:15:16.663Z,2.77
2018-12-30T10:17:46.054Z,3.80
2018-12-30T10:20:15.467Z,3.40
2018-12-30T10:22:44.848Z,3.20
2018-12-30T10:25:14.192Z,3.57
2018-12-30T10:27:43.615Z,4.07
2018-12-30T10:30:12.952Z,3.57
2018-12-30T10:32:42.310Z,3.50
2018-12-30T10:35:11.645Z,3.57
2018-12-30T10:37:40.993Z,3.67
2018-12-30T10:40:10.302Z,3.80
2018-12-30T10:42:39.611Z,4.00
2018-12-30T10:45:09.084Z,4.20
2018-12-30T10:47:38.466Z,3.47
2018-12-30T10:50:07.908Z,5.17
2018-12-30T10:52:37.264Z,4.00
2018-12-30T10:55:06.623Z,3.53
2018-12-30T10:57:35.976Z,3.13
2018-12-30T11:00:06.091Z,3.47
2018-12-30T11:02:35.426Z,3.03
2018-12-30T11:05:04.961Z,3.87
2018-12-30T11:07:34.249Z,3.37
2018-12-30T11:10:03.753Z,3.30
2018-12-30T11:12:33.102Z,3.20
2018-12-30T11:15:02.524Z,3.40
2018-12-30T11:17:31.970Z,3.57
2018-12-30T11:20:04.488Z,4.00
2018-12-30T11:22:33.909Z,3.00
2018-12-30T11:25:03.480Z,3.27
2018-12-30T11:27:32.838Z,4.30
2018-12-30T11:30:03.204Z,3.47
2018-12-30T11:32:33.585Z,3.67
2018-12-30T11:35:03.963Z,3.33
2018-12-30T11:37:34.226Z,3.37
2018-12-30T11:40:04.602Z,2.93
2018-12-30T11:42:34.840Z,3.50
2018-12-30T11:45:05.281Z,3.73
2018-12-30T11:47:35.619Z,4.30
2018-12-30T11:50:06.660Z,4.03
2018-12-30T11:52:36.833Z,3.77
2018-12-30T11:55:07.124Z,3.60
2018-12-30T11:57:37.281Z,4.07
2018-12-30T12:00:09.383Z,3.67
2018-12-30T12:02:38.827Z,3.93
2018-12-30T12:05:08.365Z,4.27
2018-12-30T12:07:37.825Z,4.17
2018-12-30T12:10:07.817Z,5.43
2018-12-30T12:12:37.206Z,4.13
2018-12-30T12:15:06.966Z,3.67
2018-12-30T12:17:36.330Z,4.03
2018-12-30T12:20:06.180Z,3.67
2018-12-30T12:22:35.516Z,3.43
2018-12-30T12:25:05.199Z,4.43
2018-12-30T12:27:34.750Z,4.23
2018-12-30T12:30:05.277Z,4.27
2018-12-30T12:32:34.798Z,3.60
2018-12-30T12:35:04.325Z,4.10
2018-12-30T12:37:33.639Z,4.73
2018-12-30T12:40:02.953Z,4.23
2018-12-30T12:42:32.271Z,4.10
2018-12-30T12:45:01.603Z,3.97
2018-12-30T12:47:31.004Z,4.43
2018-12-30T12:50:00.512Z,4.43
2018-12-30T12:52:29.911Z,4.40
2018-12-30T12:54:59.275Z,4.80
2018-12-30T12:57:28.773Z,5.27
2018-12-30T12:59:58.153Z,4.87
2018-12-30T13:02:27.636Z,5.03
2018-12-30T13:04:57.068Z,4.97
2018-12-30T13:07:26.536Z,4.57
2018-12-30T13:09:55.873Z,4.60
2018-12-30T13:12:25.236Z,5.40
2018-12-30T13:14:54.643Z,6.37
2018-12-30T13:17:24.088Z,5.70
2018-12-30T13:19:53.496Z,5.50
2018-12-30T13:22:22.932Z,5.63
2018-12-30T13:24:52.315Z,5.50
2018-12-30T13:27:21.679Z,6.67
2018-12-30T13:29:51.113Z,6.40
2018-12-30T13:32:20.549Z,5.80
2018-12-30T13:34:49.985Z,6.50
2018-12-30T13:37:19.380Z,6.43
2018-12-30T13:39:48.913Z,8.93
2018-12-30T13:42:18.465Z,5.90
2018-12-30T13:44:47.883Z,7.07
2018-12-30T13:47:17.360Z,7.40
2018-12-30T13:49:46.873Z,6.43
2018-12-30T13:52:16.270Z,7.20
2018-12-30T13:54:47.853Z,6.57
2018-12-30T13:57:16.822Z,6.33
2018-12-30T13:59:46.181Z,7.33
2018-12-30T14:02:15.587Z,6.60
2018-12-30T14:04:45.089Z,6.47
2018-12-30T14:07:14.547Z,6.47
2018-12-30T14:09:44.008Z,7.07
2018-12-30T14:12:13.423Z,6.57
2018-12-30T14:14:42.842Z,6.87
2018-12-30T14:17:12.320Z,7.37
2018-12-30T14:19:41.698Z,6.80
2018-12-30T14:22:11.243Z,6.37
2018-12-30T14:24:40.627Z,6.87
2018-12-30T14:27:10.299Z,6.37
2018-12-30T14:29:39.739Z,6.63
2018-12-30T14:32:09.266Z,7.17
2018-12-30T14:34:38.635Z,7.50
2018-12-30T14:37:08.044Z,6.57
2018-12-30T14:39:37.482Z,7.83
2018-12-30T14:42:07.413Z,5.33
2018-12-30T14:44:36.883Z,6.10
2018-12-30T14:47:06.372Z,5.33
2018-12-30T14:49:36.067Z,5.80
2018-12-30T14:52:05.456Z,6.50
2018-12-30T14:54:34.894Z,6.20
2018-12-30T14:57:04.329Z,5.63
2018-12-30T14:59:33.690Z,5.80
2018-12-30T15:02:03.080Z,5.70
2018-12-30T15:04:32.498Z,5.30
2018-12-30T15:07:01.881Z,5.67
2018-12-30T15:09:35.558Z,5.37
2018-12-30T15:12:02.359Z,5.17
2018-12-30T15:14:31.697Z,5.20
2018-12-30T15:17:01.145Z,5.83
2018-12-30T15:19:30.500Z,5.53
2018-12-30T15:22:00.022Z,6.10
2018-12-30T15:24:29.439Z,5.50
2018-12-30T15:26:58.800Z,5.50
2018-12-30T15:29:28.265Z,5.23
2018-12-30T15:31:57.843Z,5.03
2018-12-30T15:34:27.255Z,5.63
2018-12-30T15:36:56.590Z,6.33
2018-12-30T15:39:26.130Z,5.97
2018-12-30T15:41:55.476Z,6.87
2018-12-30T15:44:25.001Z,7.17
2018-12-30T15:46:54.352Z,5.43
2018-12-30T15:49:24.194Z,6.80
2018-12-30T15:51:53.618Z,6.80
2018-12-30T15:54:23.207Z,5.97
2018-12-30T15:56:52.587Z,5.90
2018-12-30T15:59:22.080Z,7.50
2018-12-30T16:01:51.490Z,7.37
2018-12-30T16:04:20.864Z,7.20
2018-12-30T16:06:50.260Z,7.13
2018-12-30T16:09:19.619Z,6.63
2018-12-30T16:11:49.092Z,6.53
2018-12-30T16:14:18.518Z,6.97
2018-12-30T16:16:47.953Z,6.63
2018-12-30T16:19:17.376Z,7.87
2018-12-30T16:21:46.745Z,7.13
2018-12-30T16:24:16.204Z,6.77
2018-12-30T16:26:45.547Z,6.40
2018-12-30T16:29:14.885Z,7.70
2018-12-30T16:31:44.248Z,7.47
2018-12-30T16:34:13.645Z,7.93
2018-12-30T16:36:43.123Z,7.33
2018-12-30T16:39:12.472Z,7.33
2018-12-30T16:41:41.843Z,7.73
2018-12-30T16:44:11.286Z,9.03
2018-12-30T16:46:40.739Z,9.17
2018-12-30T16:49:10.107Z,8.57
2018-12-30T16:51:39.514Z,9.90
2018-12-30T16:54:08.905Z,10.17
2018-12-30T16:56:38.291Z,10.37
2018-12-30T16:59:07.665Z,9.70
2018-12-30T17:01:37.001Z,11.23
2018-12-30T17:04:06.621Z,10.17
2018-12-30T17:06:36.146Z,11.93
2018-12-30T17:09:07.596Z,12.07
2018-12-30T17:11:37.239Z,11.03
2018-12-30T17:14:06.596Z,11.80
2018-12-30T17:16:35.978Z,12.07
2018-12-30T17:19:05.337Z,13.17
2018-12-30T17:21:34.719Z,13.77
2018-12-30T17:24:04.101Z,13.83
2018-12-30T17:26:33.472Z,14.53
2018-12-30T17:29:02.860Z,13.50
2018-12-30T17:31:32.272Z,12.60
2018-12-30T17:34:01.596Z,15.80
2018-12-30T17:36:35.079Z,14.50
2018-12-30T17:39:06.159Z,14.07
2018-12-30T17:41:35.562Z,16.53
2018-12-30T17:44:04.942Z,16.40
2018-12-30T17:46:35.296Z,15.67
2018-12-30T17:49:04.685Z,15.63
2018-12-30T17:51:34.079Z,18.73
2018-12-30T17:54:03.576Z,16.90
2018-12-30T17:56:35.578Z,17.33
2018-12-30T17:59:04.998Z,18.13
2018-12-30T18:01:34.575Z,18.80
2018-12-30T18:04:03.954Z,18.23
2018-12-30T18:06:34.874Z,18.63
2018-12-30T18:09:05.238Z,19.67
2018-12-30T18:11:34.667Z,20.70
2018-12-30T18:14:04.242Z,20.30
2018-12-30T18:16:34.168Z,21.00
2018-12-30T18:19:03.535Z,20.43
2018-12-30T18:21:33.112Z,21.90
2018-12-30T18:24:02.436Z,22.43
2018-12-30T18:26:37.764Z,22.17
2018-12-30T18:29:02.957Z,23.70
2018-12-30T18:31:32.375Z,22.33
2018-12-30T18:34:01.747Z,21.63
2018-12-30T18:36:31.180Z,21.10
2018-12-30T18:39:00.597Z,20.30
2018-12-30T18:41:29.971Z,23.60
2018-12-30T18:43:59.338Z,23.33
2018-12-30T18:46:28.756Z,22.80
2018-12-30T18:48:58.165Z,20.33
2018-12-30T18:51:27.575Z,21.23
2018-12-30T18:53:58.512Z,20.13
2018-12-30T18:56:27.883Z,20.30
2018-12-30T18:58:57.332Z,20.47
2018-12-30T19:01:26.668Z,19.93
2018-12-30T19:03:56.100Z,19.53
2018-12-30T19:06:25.556Z,20.80
2018-12-30T19:08:54.911Z,19.10
2018-12-30T19:11:24.276Z,19.30
2018-12-30T19:13:53.663Z,19.53
2018-12-30T19:16:23.061Z,18.73
2018-12-30T19:18:52.588Z,20.00
2018-12-30T19:21:22.023Z,20.57
2018-12-30T19:23:51.452Z,19.43
2018-12-30T19:26:20.823Z,19.07
2018-12-30T19:28:50.236Z,20.50
2018-12-30T19:31:19.673Z,20.37
2018-12-30T19:33:49.067Z,20.63
2018-12-30T19:36:18.493Z,19.60
2018-12-30T19:38:47.895Z,19.87
2018-12-30T19:41:17.359Z,21.37
2018-12-30T19:43:46.840Z,20.03
2018-12-30T19:46:16.266Z,18.87
2018-12-30T19:48:45.846Z,21.40
2018-12-30T19:51:15.253Z,19.90
2018-12-30T19:53:44.651Z,21.50
2018-12-30T19:56:14.097Z,22.40
2018-12-30T19:58:43.554Z,23.60
2018-12-30T20:01:12.930Z,20.87
2018-12-30T20:03:42.265Z,22.57
2018-12-30T20:06:11.821Z,22.27
2018-12-30T20:08:41.543Z,23.00
2018-12-30T20:11:12.164Z,23.33
2018-12-30T20:13:41.530Z,24.10
2018-12-30T20:16:10.924Z,22.77
2018-12-30T20:18:40.470Z,22.67
2018-12-30T20:21:10.003Z,23.23
2018-12-30T20:23:39.351Z,24.10
2018-12-30T20:26:08.747Z,25.10
2018-12-30T20:28:38.197Z,26.10
2018-12-30T20:31:07.687Z,26.13
2018-12-30T20:33:37.106Z,24.50
2018-12-30T20:36:06.990Z,26.33
2018-12-30T20:38:39.361Z,24.53
2018-12-30T20:41:11.659Z,24.40
2018-12-30T20:43:40.832Z,26.20
2018-12-30T20:46:10.225Z,26.53
2018-12-30T20:48:39.630Z,25.37
2018-12-30T20:51:09.009Z,25.63
2018-12-30T20:53:38.624Z,25.73
2018-12-30T20:56:07.989Z,25.40
2018-12-30T20:58:37.438Z,23.93
2018-12-30T21:01:06.929Z,26.03
2018-12-30T21:03:54.431Z,24.77
2018-12-30T21:06:28.906Z,24.30
2018-12-30T21:09:08.686Z,23.37
2018-12-30T21:11:40.840Z,23.80
2018-12-30T21:14:10.297Z,23.20
2018-12-30T21:16:42.803Z,25.77
2018-12-30T21:19:12.231Z,24.40
2018-12-30T21:21:41.790Z,23.43
2018-12-30T21:24:11.137Z,22.80
2018-12-30T21:26:45.555Z,23.80
2018-12-30T21:29:14.615Z,22.40
2018-12-30T21:31:44.103Z,22.97
2018-12-30T21:34:14.084Z,23.33
2018-12-30T21:36:46.417Z,22.10
2018-12-30T21:39:15.982Z,22.87
2018-12-30T21:41:48.875Z,22.27
2018-12-30T21:44:18.599Z,22.73
2018-12-30T21:46:51.476Z,21.67
2018-12-30T21:49:20.943Z,21.73
2018-12-30T21:51:50.326Z,22.67
2018-12-30T21:54:27.110Z,22.47
2018-12-30T21:56:57.130Z,22.47
2018-12-30T21:59:27.108Z,23.50
2018-12-30T22:01:59.148Z,24.10
2018-12-30T22:04:28.496Z,22.23
2018-12-30T22:06:58.073Z,22.17
2018-12-30T22:09:27.561Z,22.03
2018-12-30T22:11:57.281Z,22.40
2018-12-30T22:14:27.903Z,22.87
2018-12-30T22:16:57.712Z,22.10
2018-12-30T22:19:34.015Z,22.70
2018-12-30T22:22:05.718Z,22.40
2018-12-30T22:24:36.697Z,22.40
2018-12-30T22:27:06.452Z,23.30
2018-12-30T22:29:36.917Z,23.53
2018-12-30T22:32:07.011Z,22.13
2018-12-30T22:34:36.713Z,21.90
2018-12-30T22:37:06.183Z,23.13
2018-12-30T22:39:35.609Z,21.53
2018-12-30T22:42:05.013Z,21.10
2018-12-30T22:44:34.510Z,22.57
2018-12-30T22:47:07.169Z,23.20
2018-12-30T22:49:58.297Z,23.70
2018-12-30T22:52:20.773Z,23.83
2018-12-30T22:54:50.215Z,24.97
2018-12-30T22:57:19.699Z,24.17
2018-12-30T22:59:49.097Z,25.13
2018-12-30T23:02:18.453Z,25.83
2018-12-30T23:04:47.763Z,24.70
2018-12-30T23:07:17.239Z,24.77
2018-12-30T23:09:46.574Z,23.20
2018-12-30T23:12:15.977Z,24.40
2018-12-30T23:14:45.333Z,26.27
2018-12-30T23:17:20.490Z,24.83
2018-12-30T23:19:49.887Z,24.60
2018-12-30T23:22:19.496Z,26.23
2018-12-30T23:24:48.884Z,25.30
2018-12-30T23:27:18.435Z,24.20
2018-12-30T23:29:47.868Z,24.53
2018-12-30T23:32:17.289Z,25.33
2018-12-30T23:34:46.672Z,25.00
2018-12-30T23:37:16.099Z,26.30
2018-12-30T23:39:45.553Z,26.47
2018-12-30T23:42:15.028Z,26.30
2018-12-30T23:44:44.985Z,27.10
2018-12-30T23:47:14.571Z,28.40
2018-12-30T23:49:43.988Z,29.57
2018-12-30T23:52:13.342Z,26.80
2018-12-30T23:54:42.735Z,28.17
2018-12-30T23:57:12.134Z,27.27
2018-12-30T23:59:41.531Z,26.53
